Laguna, New South Wales

10:58 PM AEDT on February 09, 2016 (GMT +1100)
Watagan | | Change Station
CLOSE
Current Station
Personal Weather Station
Location: Laguna, NEW SOUTH WALES
Elevation: 699 ft
Nearby Weather Stations

Elev 699 ft 33.03 °S, 151.28 °E | Updated 11 seconds ago

Scattered Clouds
Scattered Clouds
64.4 °F
Feels Like 64.4 °F
N
0.0
Wind Variable Wind from SSE
Gusts 0.0 mph

Today
High -- | Low -- °F
--% Chance of Precip.
Yesterday
High -- | Low -- °F
Precip. -- in
Pressure 30.09 in
Visibility 6.2 miles
Clouds Scattered Clouds 2500 ft
Dew Point 64 °F
Humidity 97%
Rainfall 0.02 in
Snow Depth Not available.
6:25 AM 7:53 PM
New Moon, 1% visible
METAR YWLM 091130Z 28003KT 9999 SCT025 21/18 Q1019 USE TAF FOR ARRIVALS AFTER 1200Z NOSIG
Pressure 30.09 in
Visibility 6.2 miles
Clouds Scattered Clouds 2500 ft
Dew Point 64 °F
Humidity 97%
Rainfall 0.02 in
Snow Depth Not available.
6:25 AM 7:53 PM
New Moon, 1% visible
METAR YWLM 091130Z 28003KT 9999 SCT025 21/18 Q1019 USE TAF FOR ARRIVALS AFTER 1200Z NOSIG

10-Day Weather Forecast

Almanac

Astronomy

Feb. 09, 2016 Rise Set
Actual Time
Civil Twilight
Nautical Twilight
Astronomical Twilight
Moon
Length of Visible Light
Length of Day
Tomorrow will be .
, % of the Moon is Illuminated

Today's Extremes

Country Highs Country Lows

Community

WunderPhotos

Upload Photos

1,891,565 photos uploaded!

WunderBlog® & News

Nearby

Air Quality

  Air Quality AQ Index Pollutant
Not available.

Snow Depth

Station Depth Elevation

Earthquake Activity

City Distance Mag. Time & Date
Minimum magnitude displayed is 2.5.

Coastal Water Temperatures

Place Temperature

Stations

Nearby Weather Stations

Station Location Temp. Windchill Dew Point Humidity Wind Precip. Elev Updated Type